Time;durP1;ratioP1;P1;durP2;ratioP2;P2;SDS_P1;SDS_P2;PMS_P1;PMS_P2;Temp;Humidity;BMP_temperature;BMP_pressure;BME280_temperature;BME280_humidity;BME280_pressure;Samples;Min_cycle;Max_cycle;Signal;HPM_P1;HPM_P2
2023/02/12 00:01:00;;;;;;;1.65;1.60;;;;;;;;;;5075382;28;20048;-85
2023/02/12 00:03:26;;;;;;;1.35;1.30;;;;;;;;;;5075263;28;20204;-85
2023/02/12 00:05:53;;;;;;;0.88;0.88;;;;;;;;;;5075446;28;20052;-88
2023/02/12 00:08:19;;;;;;;1.10;1.05;;;;;;;;;;5076706;28;20105;-87
2023/02/12 00:10:46;;;;;;;1.20;1.10;;;;;;;;;;5075097;28;20044;-86
2023/02/12 00:13:14;;;;;;;1.23;1.17;;;;;;;;;;5074629;28;20481;-87
2023/02/12 00:15:41;;;;;;;4.90;1.77;;;;;;;;;;5074773;28;20402;-85
2023/02/12 00:18:08;;;;;;;1.08;1.05;;;;;;;;;;5075046;28;20048;-86
2023/02/12 00:20:34;;;;;;;4.35;1.30;;;;;;;;;;5075238;28;20394;-86
2023/02/12 00:23:01;;;;;;;1.20;1.20;;;;;;;;;;5075316;28;20555;-86
2023/02/12 00:25:28;;;;;;;2.67;2.47;;;;;;;;;;5087402;28;20104;-86
2023/02/12 00:27:54;;;;;;;1.73;1.63;;;;;;;;;;5095197;28;20561;-87
2023/02/12 00:30:22;;;;;;;0.90;0.90;;;;;;;;;;5095123;28;20052;-86
2023/02/12 00:32:48;;;;;;;1.98;1.88;;;;;;;;;;5094874;28;20097;-86
2023/02/12 00:35:15;;;;;;;2.15;2.05;;;;;;;;;;5094631;28;20101;-87
2023/02/12 00:37:42;;;;;;;10.65;3.42;;;;;;;;;;5094741;28;20059;-87
2023/02/12 00:40:08;;;;;;;1.20;1.10;;;;;;;;;;5094437;28;20052;-86
2023/02/12 00:42:35;;;;;;;2.50;2.40;;;;;;;;;;5090517;28;20382;-86
2023/02/12 00:45:01;;;;;;;1.95;1.85;;;;;;;;;;5094365;28;20105;-87
2023/02/12 00:47:29;;;;;;;2.15;2.05;;;;;;;;;;5094371;28;20102;-86
2023/02/12 00:49:56;;;;;;;1.52;1.45;;;;;;;;;;5094249;28;20048;-86
2023/02/12 00:52:22;;;;;;;0.93;0.93;;;;;;;;;;5094381;28;20055;-87
2023/02/12 00:54:49;;;;;;;1.67;1.58;;;;;;;;;;5094364;28;20386;-86
2023/02/12 00:57:15;;;;;;;2.35;2.25;;;;;;;;;;5094857;28;20060;-85
2023/02/12 00:59:42;;;;;;;0.68;0.68;;;;;;;;;;5090305;28;20052;-86
2023/02/12 01:02:08;;;;;;;1.60;1.50;;;;;;;;;;5094332;28;20093;-85
2023/02/12 01:04:36;;;;;;;2.70;2.17;;;;;;;;;;5094000;28;20055;-85
2023/02/12 01:07:03;;;;;;;2.50;2.40;;;;;;;;;;5094553;28;20463;-87
2023/02/12 01:09:29;;;;;;;2.63;2.53;;;;;;;;;;5094196;28;20048;-86
2023/02/12 01:11:56;;;;;;;0.93;0.93;;;;;;;;;;5093903;28;20135;-86
2023/02/12 01:14:22;;;;;;;1.50;1.48;;;;;;;;;;5094198;28;20040;-87
2023/02/12 01:16:49;;;;;;;1.50;1.40;;;;;;;;;;5090390;28;20040;-86
2023/02/12 01:19:15;;;;;;;1.70;1.65;;;;;;;;;;5094227;28;20052;-86
2023/02/12 01:21:43;;;;;;;2.25;2.15;;;;;;;;;;5094009;28;20071;-86
2023/02/12 01:24:10;;;;;;;1.55;1.50;;;;;;;;;;5092907;28;20102;-86
2023/02/12 01:26:36;;;;;;;1.65;1.55;;;;;;;;;;5094031;28;20051;-87
2023/02/12 01:29:05;;;;;;;2.03;1.95;;;;;;;;;;5094096;28;20117;-87
2023/02/12 01:31:33;;;;;;;1.75;1.65;;;;;;;;;;5093786;28;20133;-85
2023/02/12 01:34:00;;;;;;;2.10;2.00;;;;;;;;;;5085936;28;20047;-88
2023/02/12 01:36:27;;;;;;;0.55;0.55;;;;;;;;;;5073502;28;20098;-87
2023/02/12 01:38:56;;;;;;;1.95;1.85;;;;;;;;;;5073425;28;20129;-86
2023/02/12 01:41:24;;;;;;;2.67;2.50;;;;;;;;;;5073359;28;20087;-87
2023/02/12 01:44:07;;;;;;;1.70;1.60;;;;;;;;;;5073300;28;20090;-87
2023/02/12 01:46:33;;;;;;;1.25;1.25;;;;;;;;;;5073466;28;20485;-86
2023/02/12 01:49:00;;;;;;;1.90;1.80;;;;;;;;;;5075570;28;20116;-89
2023/02/12 01:51:27;;;;;;;1.20;1.17;;;;;;;;;;5092572;28;20052;-87
2023/02/12 01:53:59;;;;;;;3.33;3.13;;;;;;;;;;5093662;28;20474;-87
2023/02/12 01:56:25;;;;;;;2.90;2.80;;;;;;;;;;5093789;28;20060;-86
2023/02/12 01:58:54;;;;;;;2.40;2.10;;;;;;;;;;5093105;28;20102;-84
2023/02/12 02:01:22;;;;;;;1.23;1.17;;;;;;;;;;5089767;28;20044;-86
2023/02/12 02:03:50;;;;;;;0.85;0.85;;;;;;;;;;5093435;28;20055;-89
2023/02/12 02:06:18;;;;;;;7.22;6.38;;;;;;;;;;5093744;28;20085;-86
2023/02/12 02:08:44;;;;;;;2.28;2.10;;;;;;;;;;5093524;28;20052;-87
2023/02/12 02:16:40;;;;;;;1.02;1.02;;;;;;;;;;5093350;28;19919;-87
2023/02/12 02:19:11;;;;;;;1.45;1.35;;;;;;;;;;5088976;28;20102;-88
2023/02/12 02:21:55;;;;;;;2.25;2.15;;;;;;;;;;5092984;28;20528;-87
2023/02/12 02:24:41;;;;;;;4.60;4.32;;;;;;;;;;5079936;28;20040;-87
2023/02/12 02:27:20;;;;;;;0.95;0.95;;;;;;;;;;5093435;28;20105;-87
2023/02/12 02:30:01;;;;;;;0.80;0.80;;;;;;;;;;5093226;28;20052;-88
2023/02/12 02:32:31;;;;;;;0.57;0.57;;;;;;;;;;5080003;28;20473;-87
2023/02/12 02:35:00;;;;;;;1.60;1.20;;;;;;;;;;5093475;28;20101;-87
2023/02/12 02:37:30;;;;;;;1.20;1.20;;;;;;;;;;5085816;28;20110;-87
2023/02/12 02:39:59;;;;;;;1.88;1.77;;;;;;;;;;5077156;28;20059;-87
2023/02/12 02:42:29;;;;;;;2.30;2.20;;;;;;;;;;5077089;28;20106;-87
2023/02/12 02:44:59;;;;;;;1.45;1.40;;;;;;;;;;5076729;28;20045;-87
2023/02/12 02:47:30;;;;;;;1.15;1.15;;;;;;;;;;5077037;28;20052;-86
2023/02/12 02:50:01;;;;;;;1.00;1.00;;;;;;;;;;5076801;28;20048;-87
2023/02/12 02:52:30;;;;;;;0.95;0.95;;;;;;;;;;5077031;28;20060;-87
2023/02/12 02:55:00;;;;;;;2.00;1.90;;;;;;;;;;5081936;28;20052;-87
2023/02/12 02:57:30;;;;;;;0.80;0.80;;;;;;;;;;5096283;28;20493;-88
2023/02/12 03:00:02;;;;;;;3.10;2.90;;;;;;;;;;5096644;28;20129;-87
2023/02/12 03:02:31;;;;;;;1.20;1.20;;;;;;;;;;5096969;28;20115;-87
2023/02/12 03:05:02;;;;;;;1.05;0.95;;;;;;;;;;5096091;28;20044;-87
2023/02/12 03:07:30;;;;;;;3.08;2.88;;;;;;;;;;5096368;28;20110;-87
2023/02/12 03:09:59;;;;;;;0.77;0.77;;;;;;;;;;5096557;28;20055;-86
2023/02/12 03:12:31;;;;;;;0.65;0.55;;;;;;;;;;5093583;28;20528;-87
2023/02/12 03:15:01;;;;;;;1.85;1.75;;;;;;;;;;5095497;28;20051;-86
2023/02/12 03:17:31;;;;;;;2.75;2.63;;;;;;;;;;5095983;28;20049;-86
2023/02/12 03:20:01;;;;;;;2.08;1.98;;;;;;;;;;5096362;28;20048;-86
2023/02/12 03:22:30;;;;;;;3.22;2.92;;;;;;;;;;5096761;28;20048;-86
2023/02/12 03:25:00;;;;;;;3.92;3.72;;;;;;;;;;5096639;28;20055;-86
2023/02/12 03:27:29;;;;;;;2.58;2.47;;;;;;;;;;5096352;28;20052;-87
2023/02/12 03:29:57;;;;;;;0.75;0.73;;;;;;;;;;5092507;28;20097;-86
2023/02/12 03:32:27;;;;;;;2.50;2.38;;;;;;;;;;5095888;28;20134;-87
2023/02/12 03:34:59;;;;;;;0.65;0.65;;;;;;;;;;5096374;28;20085;-86
2023/02/12 03:37:28;;;;;;;2.38;1.08;;;;;;;;;;5096150;28;20051;-87
2023/02/12 03:39:57;;;;;;;1.08;1.05;;;;;;;;;;5095559;28;20489;-86
2023/02/12 03:42:28;;;;;;;2.17;2.08;;;;;;;;;;5096269;28;20378;-86
2023/02/12 03:44:57;;;;;;;3.28;3.00;;;;;;;;;;5095871;28;20044;-87
2023/02/12 03:47:25;;;;;;;7.60;1.90;;;;;;;;;;5085083;28;20509;-87
2023/02/12 03:49:57;;;;;;;1.65;1.55;;;;;;;;;;5075372;28;20048;-87
2023/02/12 03:52:23;;;;;;;1.20;1.17;;;;;;;;;;5075676;28;20052;-88
2023/02/12 03:54:51;;;;;;;2.15;1.30;;;;;;;;;;5075618;28;20067;-88
2023/02/12 03:57:20;;;;;;;1.50;1.45;;;;;;;;;;5075158;28;20060;-87
2023/02/12 03:59:47;;;;;;;2.92;2.75;;;;;;;;;;5075372;28;20053;-87
2023/02/12 04:02:15;;;;;;;0.75;0.75;;;;;;;;;;5075193;28;20044;-87
2023/02/12 04:04:41;;;;;;;4.35;4.15;;;;;;;;;;5088693;28;20443;-87
2023/02/12 04:07:08;;;;;;;1.65;1.55;;;;;;;;;;5095667;28;20058;-87
2023/02/12 04:09:34;;;;;;;2.15;2.05;;;;;;;;;;5095895;28;20110;-87
2023/02/12 04:12:07;;;;;;;1.80;1.70;;;;;;;;;;5095815;28;20132;-87
2023/02/12 04:14:40;;;;;;;2.60;2.50;;;;;;;;;;5095227;28;20105;-87
2023/02/12 04:17:10;;;;;;;1.58;1.55;;;;;;;;;;5095612;28;20048;-86
2023/02/12 04:19:40;;;;;;;0.93;0.90;;;;;;;;;;5074873;28;20052;-86
2023/02/12 04:22:14;;;;;;;1.48;1.45;;;;;;;;;;5087858;28;20055;-86
2023/02/12 04:24:44;;;;;;;3.38;1.65;;;;;;;;;;5074994;28;20048;-86
2023/02/12 04:27:17;;;;;;;1.25;1.20;;;;;;;;;;5074722;28;20052;-86
2023/02/12 04:29:48;;;;;;;2.30;2.10;;;;;;;;;;5074884;28;20056;-86
2023/02/12 04:32:16;;;;;;;0.93;0.93;;;;;;;;;;5074562;28;20135;-86
2023/02/12 04:34:45;;;;;;;1.23;1.17;;;;;;;;;;5074604;28;20067;-86
2023/02/12 04:37:15;;;;;;;3.75;3.47;;;;;;;;;;5074270;28;20056;-88
2023/02/12 04:39:42;;;;;;;1.25;1.23;;;;;;;;;;5093863;28;20052;-86
2023/02/12 04:42:08;;;;;;;3.20;3.00;;;;;;;;;;5095134;28;20052;-87
2023/02/12 04:44:40;;;;;;;1.00;0.95;;;;;;;;;;5095246;28;20044;-87
2023/02/12 04:47:07;;;;;;;2.33;2.22;;;;;;;;;;5095118;28;20056;-87
2023/02/12 04:49:34;;;;;;;3.65;3.30;;;;;;;;;;5094911;28;20100;-86
2023/02/12 04:52:00;;;;;;;1.42;1.42;;;;;;;;;;5094676;28;20467;-86
2023/02/12 04:54:27;;;;;;;0.75;0.75;;;;;;;;;;5089796;28;20044;-86
2023/02/12 04:56:53;;;;;;;0.52;0.52;;;;;;;;;;5094570;28;20060;-86
2023/02/12 04:59:20;;;;;;;1.17;1.17;;;;;;;;;;5094376;28;20555;-86
2023/02/12 05:01:48;;;;;;;0.73;0.73;;;;;;;;;;5093915;28;20493;-86
2023/02/12 05:04:15;;;;;;;0.88;0.88;;;;;;;;;;5094451;28;20048;-86
2023/02/12 05:06:42;;;;;;;1.20;1.20;;;;;;;;;;5094538;28;20129;-86
2023/02/12 05:09:10;;;;;;;1.30;1.20;;;;;;;;;;5094558;28;20044;-86
2023/02/12 05:11:36;;;;;;;1.40;1.30;;;;;;;;;;5089976;28;20113;-88
2023/02/12 05:14:03;;;;;;;0.93;0.90;;;;;;;;;;5094132;28;20048;-87
2023/02/12 05:16:29;;;;;;;2.95;2.85;;;;;;;;;;5094596;28;20463;-87
2023/02/12 05:18:57;;;;;;;2.53;2.33;;;;;;;;;;5094298;28;20099;-87
2023/02/12 05:21:24;;;;;;;0.90;0.90;;;;;;;;;;5094476;28;20051;-87
2023/02/12 05:23:50;;;;;;;0.95;0.93;;;;;;;;;;5094618;28;20048;-86
2023/02/12 05:26:18;;;;;;;2.03;1.90;;;;;;;;;;5093661;28;20048;-87
2023/02/12 05:28:45;;;;;;;1.33;1.33;;;;;;;;;;5093995;28;20044;-86
2023/02/12 05:31:13;;;;;;;3.20;2.50;;;;;;;;;;5091309;28;20052;-87
2023/02/12 05:33:41;;;;;;;2.20;2.00;;;;;;;;;;5094254;28;20047;-87
2023/02/12 05:36:11;;;;;;;2.88;2.75;;;;;;;;;;5093705;28;20497;-87
2023/02/12 05:38:37;;;;;;;2.63;1.80;;;;;;;;;;5093939;28;20110;-86
2023/02/12 05:41:04;;;;;;;2.42;2.28;;;;;;;;;;5094084;28;20055;-87
2023/02/12 05:43:31;;;;;;;2.17;1.98;;;;;;;;;;5093893;28;20097;-86
2023/02/12 05:45:59;;;;;;;0.80;0.77;;;;;;;;;;5092557;28;20051;-88
2023/02/12 05:48:25;;;;;;;4.05;2.90;;;;;;;;;;5079403;28;20044;-86
2023/02/12 05:50:52;;;;;;;1.73;1.45;;;;;;;;;;5073687;28;20546;-86
2023/02/12 05:53:19;;;;;;;5.65;5.18;;;;;;;;;;5073730;28;20053;-87
2023/02/12 05:55:46;;;;;;;2.05;1.90;;;;;;;;;;5073162;28;20135;-86
2023/02/12 05:58:13;;;;;;;3.63;3.42;;;;;;;;;;5073295;28;20059;-86
2023/02/12 06:00:39;;;;;;;4.95;4.63;;;;;;;;;;5085936;28;20054;-87
2023/02/12 06:03:06;;;;;;;1.80;1.70;;;;;;;;;;5089800;28;20509;-87
2023/02/12 06:05:32;;;;;;;1.60;1.55;;;;;;;;;;5092961;28;20051;-86
2023/02/12 06:07:59;;;;;;;1.15;1.13;;;;;;;;;;5093930;28;20645;-86
2023/02/12 06:10:27;;;;;;;3.13;2.92;;;;;;;;;;5093218;28;20097;-86
2023/02/12 06:12:54;;;;;;;1.35;1.25;;;;;;;;;;5093391;28;20511;-85
2023/02/12 06:15:20;;;;;;;4.47;3.67;;;;;;;;;;5090805;28;20097;-86
2023/02/12 06:17:47;;;;;;;0.85;0.80;;;;;;;;;;5073054;28;20098;-86
2023/02/12 06:20:13;;;;;;;2.25;2.15;;;;;;;;;;5073353;28;20053;-86
2023/02/12 06:22:40;;;;;;;1.52;1.42;;;;;;;;;;5075620;28;20078;-86
2023/02/12 06:25:07;;;;;;;3.80;2.78;;;;;;;;;;5072431;28;20114;-86
2023/02/12 06:27:35;;;;;;;2.63;2.45;;;;;;;;;;5073411;28;20048;-86
2023/02/12 06:30:02;;;;;;;1.77;1.42;;;;;;;;;;5072762;28;20049;-85
2023/02/12 06:32:28;;;;;;;3.00;2.90;;;;;;;;;;5074131;28;20078;-86
2023/02/12 06:34:55;;;;;;;1.63;1.52;;;;;;;;;;5088653;28;20485;-86
2023/02/12 06:37:21;;;;;;;3.47;3.15;;;;;;;;;;5093149;28;20051;-86
2023/02/12 06:39:48;;;;;;;2.15;1.73;;;;;;;;;;5089591;28;20055;-86
2023/02/12 06:42:14;;;;;;;3.38;3.17;;;;;;;;;;5092536;28;20052;-86
2023/02/12 06:44:42;;;;;;;5.43;4.97;;;;;;;;;;5093770;28;20048;-86
2023/02/12 06:47:09;;;;;;;2.03;1.92;;;;;;;;;;5093110;28;20056;-85
2023/02/12 06:49:35;;;;;;;1.77;1.67;;;;;;;;;;5093645;28;20052;-86
2023/02/12 06:52:02;;;;;;;3.88;3.08;;;;;;;;;;5093160;28;20059;-86
2023/02/12 06:54:28;;;;;;;1.88;1.77;;;;;;;;;;5093310;28;20056;-85
2023/02/12 06:56:55;;;;;;;4.88;2.92;;;;;;;;;;5092977;28;20105;-86
2023/02/12 06:59:21;;;;;;;3.97;2.80;;;;;;;;;;5076725;28;20055;-86
2023/02/12 07:01:49;;;;;;;3.47;3.28;;;;;;;;;;5072276;28;20045;-86
2023/02/12 07:04:16;;;;;;;0.77;0.77;;;;;;;;;;5073017;28;20052;-86
2023/02/12 07:06:42;;;;;;;2.03;1.92;;;;;;;;;;5072845;28;20083;-86
2023/02/12 07:09:09;;;;;;;1.70;1.42;;;;;;;;;;5073062;28;20052;-86
2023/02/12 07:11:36;;;;;;;3.03;2.83;;;;;;;;;;5072738;28;20056;-86
2023/02/12 07:14:03;;;;;;;4.57;3.28;;;;;;;;;;5073666;28;20497;-88
2023/02/12 07:16:29;;;;;;;3.10;2.90;;;;;;;;;;5072994;28;20055;-86
2023/02/12 07:18:57;;;;;;;3.38;3.08;;;;;;;;;;5072813;28;20048;-86
2023/02/12 07:21:24;;;;;;;1.50;1.40;;;;;;;;;;5072475;28;20242;-86
2023/02/12 07:23:51;;;;;;;6.30;3.35;;;;;;;;;;5074930;28;20505;-86
2023/02/12 07:26:18;;;;;;;4.93;3.42;;;;;;;;;;5078256;28;20052;-86
2023/02/12 07:28:45;;;;;;;2.42;2.25;;;;;;;;;;5077785;28;20052;-86
2023/02/12 07:31:13;;;;;;;3.40;3.20;;;;;;;;;;5086853;28;20044;-86
2023/02/12 07:33:40;;;;;;;1.17;1.15;;;;;;;;;;5097126;28;20070;-86
2023/02/12 07:36:09;;;;;;;4.53;2.67;;;;;;;;;;5096477;28;20040;-86
2023/02/12 07:38:38;;;;;;;2.40;2.30;;;;;;;;;;5096639;28;20048;-85
2023/02/12 07:41:08;;;;;;;3.08;2.88;;;;;;;;;;5096003;28;20106;-85
2023/02/12 07:43:35;;;;;;;3.13;3.03;;;;;;;;;;5095911;28;20055;-86
2023/02/12 07:46:08;;;;;;;1.67;1.63;;;;;;;;;;5096216;28;20048;-85
2023/02/12 07:48:35;;;;;;;5.55;2.38;;;;;;;;;;5084782;28;20060;-86
2023/02/12 07:51:03;;;;;;;2.47;2.30;;;;;;;;;;5096109;28;20135;-85
2023/02/12 07:53:31;;;;;;;1.98;1.85;;;;;;;;;;5096435;28;20085;-86
2023/02/12 07:56:04;;;;;;;1.67;1.58;;;;;;;;;;5096337;28;20394;-86
2023/02/12 07:58:30;;;;;;;3.03;2.45;;;;;;;;;;5096848;28;20128;-86
2023/02/12 08:00:57;;;;;;;5.70;3.10;;;;;;;;;;5097929;28;20063;-85
2023/02/12 08:03:23;;;;;;;1.50;1.40;;;;;;;;;;5098506;28;20078;-86
2023/02/12 08:05:50;;;;;;;2.42;2.33;;;;;;;;;;5083137;28;20045;-86
2023/02/12 08:08:16;;;;;;;4.40;2.28;;;;;;;;;;5080549;28;20323;-87
2023/02/12 08:10:44;;;;;;;5.05;4.65;;;;;;;;;;5087443;28;20075;-86
2023/02/12 08:13:11;;;;;;;2.58;2.47;;;;;;;;;;5088693;28;20044;-86
2023/02/12 08:15:37;;;;;;;4.47;2.55;;;;;;;;;;5101204;28;20056;-86
2023/02/12 08:18:04;;;;;;;2.17;2.08;;;;;;;;;;5106303;28;20051;-86
2023/02/12 08:20:30;;;;;;;1.67;1.58;;;;;;;;;;5100177;28;20074;-86
2023/02/12 08:22:57;;;;;;;3.00;2.80;;;;;;;;;;5105149;28;20447;-86
2023/02/12 08:25:23;;;;;;;3.13;2.92;;;;;;;;;;5104700;28;20078;-86
2023/02/12 08:27:51;;;;;;;3.05;2.92;;;;;;;;;;5098554;28;20448;-86
2023/02/12 08:30:18;;;;;;;2.03;1.92;;;;;;;;;;5094947;28;20466;-86
2023/02/12 08:32:44;;;;;;;6.63;5.07;;;;;;;;;;5095549;28;20047;-84
2023/02/12 08:35:11;;;;;;;5.28;3.45;;;;;;;;;;5093687;28;20055;-84
2023/02/12 08:37:37;;;;;;;2.47;2.30;;;;;;;;;;5091240;28;20488;-84
2023/02/12 08:40:04;;;;;;;4.10;3.72;;;;;;;;;;5094850;28;20074;-84
2023/02/12 08:42:30;;;;;;;4.50;2.45;;;;;;;;;;5094999;28;20497;-85
2023/02/12 08:44:58;;;;;;;3.13;2.92;;;;;;;;;;5094937;28;20044;-84
2023/02/12 08:47:25;;;;;;;4.93;4.53;;;;;;;;;;5094745;28;20063;-84
2023/02/12 08:49:51;;;;;;;2.35;2.25;;;;;;;;;;5094959;28;20509;-88
2023/02/12 08:52:18;;;;;;;3.90;3.70;;;;;;;;;;5095512;28;20040;-86
2023/02/12 08:54:44;;;;;;;4.30;4.10;;;;;;;;;;5091602;28;20551;-85
2023/02/12 08:57:11;;;;;;;4.03;3.67;;;;;;;;;;5094775;28;20059;-84
2023/02/12 08:59:37;;;;;;;5.05;4.65;;;;;;;;;;5094901;28;20052;-87
2023/02/12 09:02:07;;;;;;;2.08;1.98;;;;;;;;;;5094846;28;20056;-85
2023/02/12 09:04:34;;;;;;;4.03;3.83;;;;;;;;;;5095036;28;20056;-87
2023/02/12 09:07:01;;;;;;;3.97;3.38;;;;;;;;;;5082434;28;20041;-85
2023/02/12 09:09:28;;;;;;;2.85;2.70;;;;;;;;;;5074095;28;20048;-86
2023/02/12 09:11:54;;;;;;;1.33;1.25;;;;;;;;;;5077864;28;20048;-86
2023/02/12 09:14:23;;;;;;;2.88;2.67;;;;;;;;;;5076515;28;20094;-85
2023/02/12 09:16:51;;;;;;;4.35;4.13;;;;;;;;;;5095137;28;20043;-85
2023/02/12 09:19:19;;;;;;;3.53;3.33;;;;;;;;;;5094867;28;20052;-85
2023/02/12 09:21:45;;;;;;;2.30;2.10;;;;;;;;;;5093923;28;20044;-86
2023/02/12 09:24:12;;;;;;;4.05;2.85;;;;;;;;;;5081261;28;20036;-86
2023/02/12 09:26:39;;;;;;;1.88;1.77;;;;;;;;;;5077996;28;20439;-87
2023/02/12 09:29:05;;;;;;;3.28;2.33;;;;;;;;;;5093543;28;20048;-85
2023/02/12 09:31:32;;;;;;;1.92;1.77;;;;;;;;;;5095123;28;20101;-85
2023/02/12 09:34:00;;;;;;;2.35;2.17;;;;;;;;;;5093926;28;20040;-85
2023/02/12 09:36:28;;;;;;;4.03;2.38;;;;;;;;;;5093616;28;20048;-85
2023/02/12 09:38:55;;;;;;;2.90;2.70;;;;;;;;;;5094582;28;20125;-87
2023/02/12 09:41:33;;;;;;;1.75;1.50;;;;;;;;;;5093545;28;20405;-86
2023/02/12 09:44:04;;;;;;;4.43;4.07;;;;;;;;;;5091706;28;20048;-87
2023/02/12 09:46:32;;;;;;;2.42;2.25;;;;;;;;;;5090965;28;20036;-87
2023/02/12 09:49:03;;;;;;;2.97;2.78;;;;;;;;;;5093856;28;20055;-86
2023/02/12 09:51:32;;;;;;;2.55;2.35;;;;;;;;;;5093909;28;20101;-86
2023/02/12 09:54:01;;;;;;;1.85;1.75;;;;;;;;;;5093717;28;20390;-87
2023/02/12 09:56:28;;;;;;;2.78;2.65;;;;;;;;;;5093323;28;20060;-86
2023/02/12 09:58:56;;;;;;;3.58;3.30;;;;;;;;;;5089594;28;20052;-86
2023/02/12 10:01:23;;;;;;;2.97;2.78;;;;;;;;;;5085568;28;20048;-85
2023/02/12 10:03:50;;;;;;;3.80;3.28;;;;;;;;;;5093350;28;20055;-84
2023/02/12 10:06:19;;;;;;;1.75;1.65;;;;;;;;;;5092819;28;20059;-85
2023/02/12 10:08:54;;;;;;;3.83;3.63;;;;;;;;;;5093231;28;20490;-85
2023/02/12 10:11:30;;;;;;;2.72;2.53;;;;;;;;;;5092826;28;20102;-85
2023/02/12 10:14:01;;;;;;;4.97;4.65;;;;;;;;;;5087363;28;20067;-84
2023/02/12 10:16:35;;;;;;;1.73;1.60;;;;;;;;;;5088543;28;20048;-84
2023/02/12 10:19:10;;;;;;;2.70;2.35;;;;;;;;;;5092967;28;20436;-86
2023/02/12 10:21:44;;;;;;;2.05;1.83;;;;;;;;;;5092649;28;20044;-86
2023/02/12 10:24:28;;;;;;;1.92;1.83;;;;;;;;;;5093028;28;20048;-86
2023/02/12 10:26:58;;;;;;;3.25;3.05;;;;;;;;;;5092126;28;20089;-87
2023/02/12 10:29:25;;;;;;;3.33;2.70;;;;;;;;;;5092556;28;20389;-87
2023/02/12 10:31:53;;;;;;;5.97;2.88;;;;;;;;;;5088699;28;20052;-87
2023/02/12 10:34:21;;;;;;;4.93;2.70;;;;;;;;;;5093458;28;20056;-86
2023/02/12 10:36:48;;;;;;;2.65;2.40;;;;;;;;;;5092961;28;20052;-86
2023/02/12 10:39:18;;;;;;;6.38;5.50;;;;;;;;;;5092574;28;20055;-85
2023/02/12 10:41:46;;;;;;;4.15;3.88;;;;;;;;;;5092986;28;20048;-84
2023/02/12 10:44:14;;;;;;;4.13;3.72;;;;;;;;;;5092817;28;20191;-85
2023/02/12 10:46:41;;;;;;;3.13;2.83;;;;;;;;;;5092723;28;20109;-85
2023/02/12 10:49:11;;;;;;;1.52;1.42;;;;;;;;;;5083853;28;20106;-85
2023/02/12 10:51:51;;;;;;;4.25;2.53;;;;;;;;;;5072708;28;20088;-85
2023/02/12 10:54:40;;;;;;;9.93;4.68;;;;;;;;;;5072763;28;20056;-85
2023/02/12 10:57:16;;;;;;;3.38;3.13;;;;;;;;;;5074709;28;20107;-85
2023/02/12 10:59:45;;;;;;;4.20;3.67;;;;;;;;;;5075742;28;20056;-85
2023/02/12 11:02:19;;;;;;;6.32;5.55;;;;;;;;;;5096138;28;20101;-85
2023/02/12 11:04:45;;;;;;;6.93;3.60;;;;;;;;;;5091441;28;20048;-85
2023/02/12 11:07:12;;;;;;;4.45;4.15;;;;;;;;;;5096456;28;20055;-85
2023/02/12 11:09:44;;;;;;;3.45;3.25;;;;;;;;;;5096917;28;20109;-84
2023/02/12 11:12:17;;;;;;;9.80;7.28;;;;;;;;;;5096444;28;20114;-85
2023/02/12 11:14:49;;;;;;;4.75;4.07;;;;;;;;;;5096027;28;20090;-85
2023/02/12 11:17:20;;;;;;;5.72;3.80;;;;;;;;;;5096015;28;20072;-85
2023/02/12 11:20:01;;;;;;;6.07;5.47;;;;;;;;;;5095857;28;20044;-86
2023/02/12 11:22:28;;;;;;;3.63;3.35;;;;;;;;;;5091918;28;20527;-86
2023/02/12 11:25:00;;;;;;;6.03;4.68;;;;;;;;;;5096220;28;20073;-86
2023/02/12 11:27:29;;;;;;;9.80;6.85;;;;;;;;;;5096156;28;20044;-85
2023/02/12 11:30:14;;;;;;;4.07;3.85;;;;;;;;;;5096164;28;20110;-87
2023/02/12 11:32:41;;;;;;;2.05;1.95;;;;;;;;;;5075476;28;20094;-86
2023/02/12 11:35:12;;;;;;;4.65;4.30;;;;;;;;;;5073711;28;20055;-86
2023/02/12 11:37:40;;;;;;;3.38;3.08;;;;;;;;;;5088309;28;20102;-88
2023/02/12 11:40:08;;;;;;;4.50;3.63;;;;;;;;;;5095077;28;20048;-87
2023/02/12 11:42:37;;;;;;;2.60;2.03;;;;;;;;;;5095574;28;20523;-87
2023/02/12 11:45:04;;;;;;;3.22;3.03;;;;;;;;;;5095595;28;20093;-88
2023/02/12 11:47:32;;;;;;;7.53;3.22;;;;;;;;;;5095271;28;20479;-87
2023/02/12 11:50:02;;;;;;;3.05;2.85;;;;;;;;;;5095580;28;20073;-86
2023/02/12 11:52:31;;;;;;;3.47;2.97;;;;;;;;;;5095725;28;20059;-86
2023/02/12 11:54:59;;;;;;;5.05;4.65;;;;;;;;;;5091885;28;20052;-88
2023/02/12 11:57:35;;;;;;;4.63;2.28;;;;;;;;;;5093476;28;20056;-86
2023/02/12 12:00:03;;;;;;;4.45;3.50;;;;;;;;;;5094767;28;20055;-85
2023/02/12 12:02:32;;;;;;;2.20;2.03;;;;;;;;;;5096225;28;20047;-86
2023/02/12 12:05:03;;;;;;;6.70;5.38;;;;;;;;;;5094607;28;20051;-86
2023/02/12 12:07:29;;;;;;;;;;;;;;;;;;5095484;28;20044;-87
2023/02/12 12:09:58;;;;;;;4.15;3.80;;;;;;;;;;5094541;28;20339;-86
2023/02/12 12:12:28;;;;;;;5.15;4.38;;;;;;;;;;5094882;28;20098;-86
2023/02/12 12:20:30;;;;;;;5.82;4.38;;;;;;;;;;5094946;28;20129;-86
2023/02/12 12:23:00;;;;;;;4.63;3.30;;;;;;;;;;5094834;28;20501;-86
2023/02/12 12:25:29;;;;;;;6.28;3.95;;;;;;;;;;5095147;28;20056;-86
2023/02/12 12:28:06;;;;;;;2.30;1.67;;;;;;;;;;5094864;28;20044;-86
2023/02/12 12:30:46;;;;;;;4.10;2.67;;;;;;;;;;5107966;28;20075;-87
2023/02/12 12:33:18;;;;;;;6.47;5.97;;;;;;;;;;5091856;28;20072;-87
2023/02/12 12:35:53;;;;;;;3.95;3.65;;;;;;;;;;5082650;28;20053;-87
2023/02/12 12:38:31;;;;;;;1.75;1.65;;;;;;;;;;5101706;28;20451;-88
2023/02/12 12:41:03;;;;;;;14.20;5.18;;;;;;;;;;5100595;28;20067;-87
2023/02/12 12:43:39;;;;;;;6.68;3.67;;;;;;;;;;5106790;28;20044;-87
2023/02/12 12:46:15;;;;;;;7.75;5.75;;;;;;;;;;5103023;28;20082;-87
2023/02/12 12:48:57;;;;;;;8.13;6.40;;;;;;;;;;5096705;28;20097;-87
2023/02/12 12:51:36;;;;;;;6.30;3.65;;;;;;;;;;5085927;28;20048;-87
2023/02/12 12:54:10;;;;;;;4.40;4.03;;;;;;;;;;5109061;28;20118;-87
2023/02/12 12:56:42;;;;;;;3.70;3.40;;;;;;;;;;5100587;28;20056;-86
2023/02/12 12:59:24;;;;;;;5.03;2.70;;;;;;;;;;5101198;28;20056;-89
2023/02/12 13:02:01;;;;;;;2.92;2.72;;;;;;;;;;5101208;28;20055;-87
2023/02/12 13:04:36;;;;;;;5.10;3.75;;;;;;;;;;5100230;28;20052;-88
2023/02/12 13:07:14;;;;;;;3.30;1.52;;;;;;;;;;5093951;28;20036;-87
2023/02/12 13:09:48;;;;;;;3.88;3.22;;;;;;;;;;5099344;28;20051;-85
2023/02/12 13:12:32;;;;;;;10.98;2.95;;;;;;;;;;5093481;28;20048;-85
2023/02/12 13:15:01;;;;;;;8.95;4.35;;;;;;;;;;5094041;28;20455;-86
2023/02/12 13:17:33;;;;;;;9.43;7.28;;;;;;;;;;5093658;28;20052;-85
2023/02/12 13:20:02;;;;;;;3.63;3.38;;;;;;;;;;5093661;28;20044;-85
2023/02/12 13:22:35;;;;;;;4.65;4.25;;;;;;;;;;5089899;28;20056;-86
2023/02/12 13:25:06;;;;;;;4.82;4.43;;;;;;;;;;5073287;28;20101;-86
2023/02/12 13:27:33;;;;;;;;;;;;;;;;;;5088142;28;20048;-86
2023/02/12 13:30:04;;;;;;;6.10;5.55;;;;;;;;;;5090896;28;20007;-86
2023/02/12 13:32:32;;;;;;;4.13;3.83;;;;;;;;;;5092399;28;20063;-85
2023/02/12 13:34:59;;;;;;;5.05;4.65;;;;;;;;;;5092482;28;20044;-86
2023/02/12 13:37:34;;;;;;;7.15;5.38;;;;;;;;;;5093071;28;20048;-87
2023/02/12 13:40:03;;;;;;;4.55;4.05;;;;;;;;;;5093689;28;20055;-86
2023/02/12 13:42:39;;;;;;;5.25;4.55;;;;;;;;;;5093304;28;20048;-87
2023/02/12 13:45:17;;;;;;;3.28;3.08;;;;;;;;;;5093119;28;20044;-87
2023/02/12 13:47:47;;;;;;;3.65;3.40;;;;;;;;;;5088256;28;20065;-87
2023/02/12 13:50:23;;;;;;;6.38;2.70;;;;;;;;;;5092757;28;20134;-86
2023/02/12 13:52:53;;;;;;;6.10;5.53;;;;;;;;;;5092810;28;20108;-87
2023/02/12 13:55:25;;;;;;;2.63;2.45;;;;;;;;;;5093056;28;20044;-86
2023/02/12 13:58:10;;;;;;;2.30;2.20;;;;;;;;;;5093384;28;20048;-87
2023/02/12 14:00:55;;;;;;;3.47;3.22;;;;;;;;;;5094879;28;20044;-87
2023/02/12 14:03:24;;;;;;;4.60;3.33;;;;;;;;;;5092897;28;20044;-86
2023/02/12 14:06:06;;;;;;;5.85;5.30;;;;;;;;;;5088379;28;20138;-86
2023/02/12 14:08:35;;;;;;;5.75;5.25;;;;;;;;;;5090185;28;20054;-88
2023/02/12 14:11:06;;;;;;;5.03;3.13;;;;;;;;;;5092818;28;20467;-88
2023/02/12 14:13:34;;;;;;;4.15;3.85;;;;;;;;;;5092981;28;20128;-86
2023/02/12 14:16:18;;;;;;;5.47;5.00;;;;;;;;;;5092674;28;20055;-86
2023/02/12 14:18:45;;;;;;;2.42;2.22;;;;;;;;;;5088970;28;20040;-86
2023/02/12 14:21:44;;;;;;;8.15;3.83;;;;;;;;;;5092548;28;20052;-86
2023/02/12 14:24:28;;;;;;;4.55;2.83;;;;;;;;;;5073271;28;20139;-86
2023/02/12 14:26:56;;;;;;;4.85;3.58;;;;;;;;;;5076772;28;20052;-86
2023/02/12 14:29:23;;;;;;;4.43;4.05;;;;;;;;;;5088778;28;20808;-87
2023/02/12 14:31:50;;;;;;;3.65;3.35;;;;;;;;;;5093262;28;20469;-86
2023/02/12 14:34:50;;;;;;;4.97;3.88;;;;;;;;;;5096302;28;20048;-86
2023/02/12 14:37:18;;;;;;;3.28;2.42;;;;;;;;;;5097021;28;20532;-87
2023/02/12 14:39:45;;;;;;;5.20;4.57;;;;;;;;;;5096538;28;20108;-86
2023/02/12 14:42:30;;;;;;;2.42;2.22;;;;;;;;;;5111242;28;20136;-88
2023/02/12 14:45:04;;;;;;;4.63;3.40;;;;;;;;;;5101272;28;20048;-89
2023/02/12 14:47:48;;;;;;;5.30;4.95;;;;;;;;;;5085948;28;20052;-88
2023/02/12 14:50:16;;;;;;;3.35;2.95;;;;;;;;;;5089986;28;20063;-86
2023/02/12 14:52:45;;;;;;;5.10;3.63;;;;;;;;;;5084622;28;20056;-88
2023/02/12 14:55:22;;;;;;;4.85;4.50;;;;;;;;;;5083449;28;20048;-86
2023/02/12 14:57:50;;;;;;;6.18;5.32;;;;;;;;;;5092673;28;20109;-87
2023/02/12 15:00:26;;;;;;;2.50;2.35;;;;;;;;;;5082889;28;20049;-89
2023/02/12 15:02:54;;;;;;;2.47;2.08;;;;;;;;;;5083259;28;20756;-87
2023/02/12 15:05:27;;;;;;;5.35;3.83;;;;;;;;;;5104733;28;20066;-88
2023/02/12 15:07:57;;;;;;;2.55;2.35;;;;;;;;;;5109361;28;20447;-86